MKY weather

Mackay Airport
Mackay, Queensland, Australia

Public forecast

Using degrees Celsius for public forecast. Weather courtesy of forecast.io.

METAR (pilot weather report)

Retrieved 2018/01/20 16:00 UTC (45 minutes ago):

YBMK 201600Z AUTO 08009KT 9999 // BKN032 BKN041 26/19 Q1009

TAF (pilot weather forecast)

Closest forecast is Hamilton Island Airport, 50.5 nm (93.5 km) NNW. Retrieved 2018/01/20 12:00 UTC (5 hours ago):

TAF YBHM 201100Z 2012/2024 11015KT 9999 SCT030